Time;durP1;ratioP1;P1;durP2;ratioP2;P2;SDS_P1;SDS_P2;PMS_P1;PMS_P2;Temp;Humidity;BMP_temperature;BMP_pressure;BME280_temperature;BME280_humidity;BME280_pressure;Samples;Min_cycle;Max_cycle;Signal;HPM_P1;HPM_P2
2021/05/30 00:04:44;;;;;;;18.1;11.8;;;;;;;8.72;100;98920.05;;;;
2021/05/30 00:14:42;;;;;;;15.3;13.2;;;;;;;8.89;100;98910.42;;;;
2021/05/30 00:24:41;;;;;;;18.5;12.8;;;;;;;8.85;100;98911.31;;;;
2021/05/30 00:34:39;;;;;;;16;12.4;;;;;;;8.97;100;98923.23;;;;
2021/05/30 00:44:38;;;;;;;13.6;11.2;;;;;;;9.06;100;98908.05;;;;
2021/05/30 00:54:36;;;;;;;15.2;13.7;;;;;;;9.05;100;98898.41;;;;
2021/05/30 01:04:35;;;;;;;18.3;15.5;;;;;;;8.96;100;98907.38;;;;
2021/05/30 01:14:34;;;;;;;18;14.5;;;;;;;8.97;100;98898.23;;;;
2021/05/30 01:24:32;;;;;;;19.8;15.5;;;;;;;8.99;100;98901.42;;;;
2021/05/30 01:34:33;;;;;;;16.9;15.2;;;;;;;8.97;100;98898.23;;;;
2021/05/30 01:44:29;;;;;;;19.6;16.5;;;;;;;8.89;100;98907.73;;;;
2021/05/30 01:54:28;;;;;;;15.7;13.3;;;;;;;8.97;100;98906.3;;;;
2021/05/30 02:04:26;;;;;;;18.1;14;;;;;;;8.92;100;98917.14;;;;
2021/05/30 02:14:25;;;;;;;24.3;19.4;;;;;;;8.93;100;98906.08;;;;
2021/05/30 02:24:23;;;;;;;20.2;16.9;;;;;;;8.98;100;98911.41;;;;
2021/05/30 02:34:22;;;;;;;16.8;15.1;;;;;;;8.99;100;98906.8;;;;
2021/05/30 02:44:20;;;;;;;27.6;16.8;;;;;;;8.97;100;98908.99;;;;
2021/05/30 02:54:19;;;;;;;19.1;17.2;;;;;;;8.89;100;98913.11;;;;
2021/05/30 03:04:18;;;;;;;22.1;17.7;;;;;;;8.98;100;98916.78;;;;
2021/05/30 03:14:16;;;;;;;16.8;15;;;;;;;9.19;100;98908.44;;;;
2021/05/30 03:24:15;;;;;;;17.9;15.6;;;;;;;9.44;100;98924.99;;;;
2021/05/30 03:34:13;;;;;;;19.8;15.7;;;;;;;9.84;100;98918.2;;;;
2021/05/30 03:44:12;;;;;;;22.1;15.9;;;;;;;10.14;100;98922.29;;;;
2021/05/30 03:54:11;;;;;;;17.1;14.5;;;;;;;10.72;100;98930.66;;;;
2021/05/30 04:04:10;;;;;;;18.1;13.6;;;;;;;10.69;100;98939.31;;;;
2021/05/30 04:14:09;;;;;;;17.1;12.8;;;;;;;10.78;100;98945.63;;;;
2021/05/30 04:24:08;;;;;;;14.5;11.9;;;;;;;11.14;100;98939.52;;;;
2021/05/30 04:34:07;;;;;;;13.8;11.2;;;;;;;11.11;100;98946.29;;;;
2021/05/30 04:44:05;;;;;;;13.2;9.7;;;;;;;11.01;100;98960.79;;;;
2021/05/30 04:54:04;;;;;;;14.9;11.8;;;;;;;10.81;100;98958.5;;;;
2021/05/30 05:04:03;;;;;;;13.4;8.7;;;;;;;10.85;100;98956.81;;;;
2021/05/30 05:14:03;;;;;;;11.6;10.4;;;;;;;10.94;100;98968.48;;;;
2021/05/30 05:24:01;;;;;;;9.9;8.1;;;;;;;10.64;100;98974.47;;;;
2021/05/30 05:34:00;;;;;;;12.4;10.2;;;;;;;10.56;100;98989.43;;;;
2021/05/30 05:43:59;;;;;;;12.5;10.1;;;;;;;11.07;100;98991.95;;;;
2021/05/30 05:53:59;;;;;;;10.8;9.8;;;;;;;11.41;100;98991.53;;;;
2021/05/30 06:03:56;;;;;;;12.2;10.1;;;;;;;11.69;100;98992.27;;;;
2021/05/30 06:13:55;;;;;;;10.5;9.2;;;;;;;12.74;100;98995.39;;;;
2021/05/30 06:23:54;;;;;;;19;9.5;;;;;;;12.69;100;99000.92;;;;
2021/05/30 06:33:54;;;;;;;11.5;8.7;;;;;;;12.45;100;99003.98;;;;
2021/05/30 06:43:53;;;;;;;12.9;10.3;;;;;;;12.73;100;99015.42;;;;
2021/05/30 06:53:52;;;;;;;14;9.8;;;;;;;12.94;100;99024.59;;;;
2021/05/30 07:03:51;;;;;;;12.5;10.8;;;;;;;12.85;100;99015.63;;;;
2021/05/30 07:13:50;;;;;;;12.4;10.4;;;;;;;12.95;100;99026.97;;;;
2021/05/30 07:23:49;;;;;;;15.2;10.9;;;;;;;12.93;100;99031.91;;;;
2021/05/30 07:33:49;;;;;;;12.4;9.8;;;;;;;13.18;100;99025.03;;;;
2021/05/30 07:43:48;;;;;;;9.9;8.7;;;;;;;12.82;100;99038.69;;;;
2021/05/30 07:53:47;;;;;;;13.1;9;;;;;;;12.24;100;99046.92;;;;
2021/05/30 08:03:46;;;;;;;10.5;9.4;;;;;;;12.53;100;99049.97;;;;
2021/05/30 08:13:45;;;;;;;12.4;8.6;;;;;;;13.4;100;99048.48;;;;
2021/05/30 08:23:44;;;;;;;13.2;9.9;;;;;;;13.95;100;99051.48;;;;
2021/05/30 08:33:44;;;;;;;11.1;9.3;;;;;;;13.72;100;99058.13;;;;
2021/05/30 08:43:43;;;;;;;10.3;7.2;;;;;;;14.21;100;99062.31;;;;
2021/05/30 08:53:43;;;;;;;6.2;4;;;;;;;14.5;100;99071.43;;;;
2021/05/30 09:03:42;;;;;;;7.1;3.1;;;;;;;14.18;100;99071.08;;;;
2021/05/30 09:13:41;;;;;;;6.2;4;;;;;;;13.87;100;99071.22;;;;
2021/05/30 09:23:41;;;;;;;7.1;3.2;;;;;;;13.64;100;99086.78;;;;
2021/05/30 09:33:40;;;;;;;7.4;4.1;;;;;;;13.92;100;99071.86;;;;
2021/05/30 09:43:39;;;;;;;7.1;3.4;;;;;;;13.81;100;99081.42;;;;
2021/05/30 09:53:39;;;;;;;2.7;1.7;;;;;;;14.43;100;99076.54;;;;
2021/05/30 10:03:38;;;;;;;2.3;0.9;;;;;;;15.07;100;99080.06;;;;
2021/05/30 10:13:37;;;;;;;1.5;0.8;;;;;;;15.6;95.8418;99065.16;;;;
2021/05/30 10:23:37;;;;;;;1.1;0.7;;;;;;;15.5;96.01465;99079.92;;;;
2021/05/30 10:33:36;;;;;;;1.9;1.1;;;;;;;16.37;95.71387;99075.48;;;;
2021/05/30 10:43:36;;;;;;;4.8;1.4;;;;;;;16.61;91.51953;99077.53;;;;
2021/05/30 10:53:36;;;;;;;3;1.6;;;;;;;15.38;97.65527;99062.67;;;;
2021/05/30 11:13:35;;;;;;;4.2;2.1;;;;;;;15.38;100;99065.39;;;;
2021/05/30 11:23:34;;;;;;;4.4;1.2;;;;;;;16.37;98.49805;99058.36;;;;
2021/05/30 11:33:40;;;;;;;2.7;1.4;;;;;;;17;88.80664;99060.63;;;;
2021/05/30 11:43:34;;;;;;;3.8;1.5;;;;;;;17.96;85.79492;99061.77;;;;
2021/05/30 11:53:34;;;;;;;3;1.6;;;;;;;17.34;85.42383;99045.78;;;;
2021/05/30 12:03:33;;;;;;;3.3;1.4;;;;;;;16.96;88.6377;99046.09;;;;
2021/05/30 12:13:33;;;;;;;2.6;1.3;;;;;;;17.46;86.32715;99036.8;;;;
2021/05/30 12:23:33;;;;;;;5.2;2.2;;;;;;;16.65;87.01367;99039.55;;;;
2021/05/30 12:33:32;;;;;;;2.4;0.9;;;;;;;16.74;87.21484;99041.05;;;;
2021/05/30 12:43:32;;;;;;;2.5;1.5;;;;;;;17.17;85.6416;99034.31;;;;
2021/05/30 12:53:32;;;;;;;2.1;1;;;;;;;16.67;87.11914;99034.55;;;;
2021/05/30 13:03:32;;;;;;;3.6;1.7;;;;;;;16.87;91.83496;99039.94;;;;
2021/05/30 13:13:32;;;;;;;4.4;2;;;;;;;16.88;95.86914;99024.4;;;;
2021/05/30 13:23:32;;;;;;;5.6;3.1;;;;;;;16.76;98.8125;99038.8;;;;
2021/05/30 13:33:31;;;;;;;5.7;2.8;;;;;;;15.84;100;99037.34;;;;
2021/05/30 13:43:31;;;;;;;6.8;3.2;;;;;;;15.09;100;99034.39;;;;
2021/05/30 13:53:30;;;;;;;6;3.8;;;;;;;14.96;100;99040.81;;;;
2021/05/30 14:03:30;;;;;;;7.7;4.6;;;;;;;15.65;100;99040.53;;;;
2021/05/30 14:13:29;;;;;;;8.6;4.4;;;;;;;16.08;100;99030.13;;;;
2021/05/30 14:23:29;;;;;;;9.1;5.2;;;;;;;17.01;100;99028.72;;;;
2021/05/30 14:33:29;;;;;;;4.7;2.2;;;;;;;16.72;94.12695;99037.88;;;;
2021/05/30 14:43:28;;;;;;;9.8;3.5;;;;;;;16.81;96.79785;99024.95;;;;
2021/05/30 14:53:28;;;;;;;3.7;1.2;;;;;;;16.46;86.30371;99040.81;;;;
2021/05/30 15:03:28;;;;;;;3.5;1.5;;;;;;;16.1;88.09082;99044.17;;;;
2021/05/30 15:13:29;;;;;;;5.9;4;;;;;;;15.38;100;99044.46;;;;
2021/05/30 15:23:27;;;;;;;6.3;4;;;;;;;15.29;100;99051.06;;;;
2021/05/30 15:33:27;;;;;;;17.8;13.1;;;;;;;15;100;99058.05;;;;
2021/05/30 15:43:26;;;;;;;10.8;7.1;;;;;;;14.68;100;99053.21;;;;
2021/05/30 15:53:26;;;;;;;11.8;5.6;;;;;;;14.66;100;99062.77;;;;
2021/05/30 16:03:25;;;;;;;13.4;5.3;;;;;;;14.86;100;99059.36;;;;
2021/05/30 16:13:25;;;;;;;7.2;4.2;;;;;;;14.81;100;99070.41;;;;
2021/05/30 16:23:24;;;;;;;5.1;3.4;;;;;;;14.59;100;99068.69;;;;
2021/05/30 16:33:24;;;;;;;6.9;4.1;;;;;;;14.53;100;99069.98;;;;
2021/05/30 16:43:23;;;;;;;6.7;3.8;;;;;;;14.38;100;99067.75;;;;
2021/05/30 16:53:23;;;;;;;8.2;4.5;;;;;;;14.52;100;99079.23;;;;
2021/05/30 17:03:22;;;;;;;8.9;4.9;;;;;;;14.7;100;99080.8;;;;
2021/05/30 17:13:22;;;;;;;8.1;4.3;;;;;;;14.66;100;99079.05;;;;
2021/05/30 17:23:21;;;;;;;7.2;4.1;;;;;;;14.61;100;99083.52;;;;
2021/05/30 17:33:20;;;;;;;6.1;2.5;;;;;;;14.48;100;99080.98;;;;
2021/05/30 17:43:20;;;;;;;9.7;6.9;;;;;;;14.12;100;99073.16;;;;
2021/05/30 17:53:19;;;;;;;10.8;6.2;;;;;;;13.86;100;99075.84;;;;
2021/05/30 18:03:19;;;;;;;6.9;4.6;;;;;;;13.67;100;99091.59;;;;
2021/05/30 18:13:21;;;;;;;9.6;6.7;;;;;;;13.17;100;99103.82;;;;
2021/05/30 18:23:17;;;;;;;11.1;7.4;;;;;;;13.02;100;99113.1;;;;
2021/05/30 18:33:16;;;;;;;10.6;6.6;;;;;;;13.03;100;99126.34;;;;
2021/05/30 18:43:17;;;;;;;13;8.3;;;;;;;12.82;100;99133.37;;;;
2021/05/30 18:53:15;;;;;;;12.4;9.7;;;;;;;12.28;100;99137.1;;;;
2021/05/30 19:03:14;;;;;;;16.7;7.9;;;;;;;12.21;100;99139.42;;;;
2021/05/30 19:13:13;;;;;;;18.1;6.5;;;;;;;11.92;100;99145.17;;;;
2021/05/30 19:23:12;;;;;;;10.1;7.2;;;;;;;11.6;100;99148.76;;;;
2021/05/30 19:33:11;;;;;;;7.5;6.1;;;;;;;11.12;100;99147.52;;;;
2021/05/30 19:43:10;;;;;;;11.4;9.1;;;;;;;11.06;100;99144.12;;;;
2021/05/30 19:53:09;;;;;;;14.6;8.5;;;;;;;11.05;100;99156;;;;
2021/05/30 20:03:08;;;;;;;10.8;8.8;;;;;;;10.96;100;99160.48;;;;
2021/05/30 20:13:09;;;;;;;13.6;9.6;;;;;;;11.02;100;99148.5;;;;
2021/05/30 20:23:06;;;;;;;12.3;9.4;;;;;;;10.98;100;99147.48;;;;
2021/05/30 20:33:05;;;;;;;13.8;10.3;;;;;;;11.01;100;99141.5;;;;
2021/05/30 20:43:04;;;;;;;12.6;9.3;;;;;;;10.96;100;99149.69;;;;
2021/05/30 20:53:03;;;;;;;11.6;8.6;;;;;;;11.04;100;99146.3;;;;
2021/05/30 21:03:02;;;;;;;12.4;9.3;;;;;;;11.01;100;99152.28;;;;
2021/05/30 21:13:02;;;;;;;12;7.7;;;;;;;10.93;100;99152.95;;;;
2021/05/30 21:22:59;;;;;;;12.7;8.9;;;;;;;10.74;100;99144.13;;;;
2021/05/30 21:32:58;;;;;;;12.2;8.5;;;;;;;10.47;100;99144.02;;;;
2021/05/30 21:42:57;;;;;;;13.2;10.5;;;;;;;10.39;100;99148.17;;;;
2021/05/30 21:52:56;;;;;;;15;10.8;;;;;;;10.27;100;99147.83;;;;
2021/05/30 22:02:55;;;;;;;14.7;9.4;;;;;;;10.31;100;99142.66;;;;
2021/05/30 22:12:54;;;;;;;16.3;8.9;;;;;;;10.39;100;99161.64;;;;
2021/05/30 22:22:52;;;;;;;11;7.9;;;;;;;10.37;100;99152.26;;;;
2021/05/30 22:32:51;;;;;;;11.7;8.2;;;;;;;10.48;100;99154.48;;;;
2021/05/30 22:42:50;;;;;;;17.8;11.1;;;;;;;10.35;100;99141.76;;;;
2021/05/30 22:52:50;;;;;;;11.8;10.3;;;;;;;10.5;100;99135.34;;;;
2021/05/30 23:02:48;;;;;;;13;9.6;;;;;;;10.38;100;99126.89;;;;
2021/05/30 23:12:47;;;;;;;13.3;10.8;;;;;;;10.29;100;99118.69;;;;
2021/05/30 23:22:45;;;;;;;12.1;9;;;;;;;10.26;100;99116.58;;;;
2021/05/30 23:32:44;;;;;;;17;12.1;;;;;;;10.19;100;99115.34;;;;
2021/05/30 23:42:43;;;;;;;13.6;10.5;;;;;;;10.1;100;99104.38;;;;
2021/05/30 23:52:42;;;;;;;13;11.7;;;;;;;10.13;100;99101.13;;;;
